sensor_id;sensor_type;location;lat;lon;timestamp;temperature;humidity
78325;DHT22;67584;51.400;6.692;2023-10-19T00:00:47;11.70;91.40
78325;DHT22;67584;51.400;6.692;2023-10-19T00:03:18;11.80;91.30
78325;DHT22;67584;51.400;6.692;2023-10-19T00:05:45;11.90;91.30
78325;DHT22;67584;51.400;6.692;2023-10-19T00:08:12;11.80;90.90
78325;DHT22;67584;51.400;6.692;2023-10-19T00:10:43;11.80;91.30
78325;DHT22;67584;51.400;6.692;2023-10-19T00:13:10;11.70;91.20
78325;DHT22;67584;51.400;6.692;2023-10-19T00:15:41;11.80;90.90
78325;DHT22;67584;51.400;6.692;2023-10-19T00:18:15;11.90;90.70
78325;DHT22;67584;51.400;6.692;2023-10-19T00:20:41;12.00;90.70
78325;DHT22;67584;51.400;6.692;2023-10-19T00:23:07;12.00;90.50
78325;DHT22;67584;51.400;6.692;2023-10-19T00:25:35;12.00;90.90
78325;DHT22;67584;51.400;6.692;2023-10-19T00:28:01;12.00;90.80
78325;DHT22;67584;51.400;6.692;2023-10-19T00:30:30;12.10;90.90
78325;DHT22;67584;51.400;6.692;2023-10-19T00:32:57;12.10;90.90
78325;DHT22;67584;51.400;6.692;2023-10-19T00:35:33;12.10;90.60
78325;DHT22;67584;51.400;6.692;2023-10-19T00:38:02;12.10;90.60
78325;DHT22;67584;51.400;6.692;2023-10-19T00:41:08;12.20;90.60
78325;DHT22;67584;51.400;6.692;2023-10-19T00:43:40;12.20;90.60
78325;DHT22;67584;51.400;6.692;2023-10-19T00:46:09;12.20;90.70
78325;DHT22;67584;51.400;6.692;2023-10-19T00:48:51;12.20;90.90
78325;DHT22;67584;51.400;6.692;2023-10-19T00:51:21;12.20;91.00
78325;DHT22;67584;51.400;6.692;2023-10-19T00:53:55;12.20;91.20
78325;DHT22;67584;51.400;6.692;2023-10-19T00:56:23;12.20;91.30
78325;DHT22;67584;51.400;6.692;2023-10-19T00:58:49;12.30;91.40
78325;DHT22;67584;51.400;6.692;2023-10-19T01:01:24;12.20;91.40
78325;DHT22;67584;51.400;6.692;2023-10-19T01:03:51;12.10;91.40
78325;DHT22;67584;51.400;6.692;2023-10-19T01:06:23;12.30;91.40
78325;DHT22;67584;51.400;6.692;2023-10-19T01:08:49;12.30;91.60
78325;DHT22;67584;51.400;6.692;2023-10-19T01:11:17;12.30;91.20
78325;DHT22;67584;51.400;6.692;2023-10-19T01:13:47;12.30;91.40
78325;DHT22;67584;51.400;6.692;2023-10-19T01:16:17;12.30;91.20
78325;DHT22;67584;51.400;6.692;2023-10-19T01:18:52;12.20;91.00
78325;DHT22;67584;51.400;6.692;2023-10-19T01:21:24;12.20;91.70
78325;DHT22;67584;51.400;6.692;2023-10-19T01:24:12;12.40;91.50
78325;DHT22;67584;51.400;6.692;2023-10-19T01:26:42;12.40;91.60
78325;DHT22;67584;51.400;6.692;2023-10-19T01:29:08;12.40;91.30
78325;DHT22;67584;51.400;6.692;2023-10-19T01:31:43;12.40;91.40
78325;DHT22;67584;51.400;6.692;2023-10-19T01:34:22;12.40;91.10
78325;DHT22;67584;51.400;6.692;2023-10-19T01:36:47;12.50;91.10
78325;DHT22;67584;51.400;6.692;2023-10-19T01:39:16;12.50;91.10
78325;DHT22;67584;51.400;6.692;2023-10-19T01:41:45;12.50;91.00
78325;DHT22;67584;51.400;6.692;2023-10-19T01:44:11;12.60;91.10
78325;DHT22;67584;51.400;6.692;2023-10-19T01:46:41;12.50;91.00
78325;DHT22;67584;51.400;6.692;2023-10-19T01:49:09;12.50;90.90
78325;DHT22;67584;51.400;6.692;2023-10-19T01:51:36;12.50;91.20
78325;DHT22;67584;51.400;6.692;2023-10-19T01:54:08;12.50;91.20
78325;DHT22;67584;51.400;6.692;2023-10-19T01:56:34;12.60;91.20
78325;DHT22;67584;51.400;6.692;2023-10-19T01:59:04;12.60;91.10
78325;DHT22;67584;51.400;6.692;2023-10-19T02:01:30;12.60;91.10
78325;DHT22;67584;51.400;6.692;2023-10-19T02:04:03;12.70;91.00
78325;DHT22;67584;51.400;6.692;2023-10-19T02:06:33;12.70;91.20
78325;DHT22;67584;51.400;6.692;2023-10-19T02:09:10;12.70;90.90
78325;DHT22;67584;51.400;6.692;2023-10-19T02:11:52;12.80;90.90
78325;DHT22;67584;51.400;6.692;2023-10-19T02:14:19;12.90;90.90
78325;DHT22;67584;51.400;6.692;2023-10-19T02:16:47;12.90;90.80
78325;DHT22;67584;51.400;6.692;2023-10-19T02:19:13;12.90;90.80
78325;DHT22;67584;51.400;6.692;2023-10-19T02:21:40;13.00;90.60
78325;DHT22;67584;51.400;6.692;2023-10-19T02:24:10;13.10;90.50
78325;DHT22;67584;51.400;6.692;2023-10-19T02:26:40;13.00;90.60
78325;DHT22;67584;51.400;6.692;2023-10-19T02:29:07;13.10;90.60
78325;DHT22;67584;51.400;6.692;2023-10-19T02:31:34;13.00;90.30
78325;DHT22;67584;51.400;6.692;2023-10-19T02:34:03;13.10;90.50
78325;DHT22;67584;51.400;6.692;2023-10-19T02:36:33;13.10;90.30
78325;DHT22;67584;51.400;6.692;2023-10-19T02:39:03;13.00;90.00
78325;DHT22;67584;51.400;6.692;2023-10-19T02:41:36;13.00;90.50
78325;DHT22;67584;51.400;6.692;2023-10-19T02:44:09;13.10;90.30
78325;DHT22;67584;51.400;6.692;2023-10-19T02:46:47;13.10;90.40
78325;DHT22;67584;51.400;6.692;2023-10-19T02:49:15;13.10;90.20
78325;DHT22;67584;51.400;6.692;2023-10-19T02:51:47;13.00;90.20
78325;DHT22;67584;51.400;6.692;2023-10-19T02:54:15;13.00;90.10
78325;DHT22;67584;51.400;6.692;2023-10-19T02:56:49;13.10;90.40
78325;DHT22;67584;51.400;6.692;2023-10-19T02:59:17;13.10;90.20
78325;DHT22;67584;51.400;6.692;2023-10-19T03:01:48;13.10;90.30
78325;DHT22;67584;51.400;6.692;2023-10-19T03:04:14;13.10;90.10
78325;DHT22;67584;51.400;6.692;2023-10-19T03:06:41;13.10;90.30
78325;DHT22;67584;51.400;6.692;2023-10-19T03:09:08;13.10;90.50
78325;DHT22;67584;51.400;6.692;2023-10-19T03:11:57;13.10;90.60
78325;DHT22;67584;51.400;6.692;2023-10-19T03:14:31;13.20;90.60
78325;DHT22;67584;51.400;6.692;2023-10-19T03:16:57;13.20;90.50
78325;DHT22;67584;51.400;6.692;2023-10-19T03:19:23;13.20;90.50
78325;DHT22;67584;51.400;6.692;2023-10-19T03:21:53;13.20;90.50
78325;DHT22;67584;51.400;6.692;2023-10-19T03:24:20;13.20;90.30
78325;DHT22;67584;51.400;6.692;2023-10-19T03:27:05;13.20;90.60
78325;DHT22;67584;51.400;6.692;2023-10-19T03:29:39;13.20;90.50
78325;DHT22;67584;51.400;6.692;2023-10-19T03:32:05;13.30;90.50
78325;DHT22;67584;51.400;6.692;2023-10-19T03:34:35;13.30;90.50
78325;DHT22;67584;51.400;6.692;2023-10-19T03:37:01;13.30;90.40
78325;DHT22;67584;51.400;6.692;2023-10-19T03:39:34;13.20;90.30
78325;DHT22;67584;51.400;6.692;2023-10-19T03:42:04;13.30;90.30
78325;DHT22;67584;51.400;6.692;2023-10-19T03:44:34;13.30;90.40
78325;DHT22;67584;51.400;6.692;2023-10-19T03:47:17;13.30;90.50
78325;DHT22;67584;51.400;6.692;2023-10-19T03:49:47;13.30;90.30
78325;DHT22;67584;51.400;6.692;2023-10-19T03:52:13;13.30;90.20
78325;DHT22;67584;51.400;6.692;2023-10-19T03:54:39;13.40;90.10
78325;DHT22;67584;51.400;6.692;2023-10-19T03:57:06;13.40;90.00
78325;DHT22;67584;51.400;6.692;2023-10-19T03:59:41;13.50;90.20
78325;DHT22;67584;51.400;6.692;2023-10-19T04:02:10;13.40;90.10
78325;DHT22;67584;51.400;6.692;2023-10-19T04:04:43;13.40;89.90
78325;DHT22;67584;51.400;6.692;2023-10-19T04:07:12;13.50;89.90
78325;DHT22;67584;51.400;6.692;2023-10-19T04:09:50;13.40;90.00
78325;DHT22;67584;51.400;6.692;2023-10-19T04:12:35;13.50;90.10
78325;DHT22;67584;51.400;6.692;2023-10-19T04:15:06;13.50;90.00
78325;DHT22;67584;51.400;6.692;2023-10-19T04:17:42;13.50;90.00
78325;DHT22;67584;51.400;6.692;2023-10-19T04:20:09;13.50;89.80
78325;DHT22;67584;51.400;6.692;2023-10-19T04:22:53;13.50;89.90
78325;DHT22;67584;51.400;6.692;2023-10-19T04:25:19;13.50;89.90
78325;DHT22;67584;51.400;6.692;2023-10-19T04:27:47;13.50;89.90
78325;DHT22;67584;51.400;6.692;2023-10-19T04:30:15;13.60;90.00
78325;DHT22;67584;51.400;6.692;2023-10-19T04:32:42;13.50;90.10
78325;DHT22;67584;51.400;6.692;2023-10-19T04:35:08;13.60;90.20
78325;DHT22;67584;51.400;6.692;2023-10-19T04:37:38;13.70;90.00
78325;DHT22;67584;51.400;6.692;2023-10-19T04:40:09;13.60;90.20
78325;DHT22;67584;51.400;6.692;2023-10-19T04:42:35;13.60;90.10
78325;DHT22;67584;51.400;6.692;2023-10-19T04:45:02;13.70;90.20
78325;DHT22;67584;51.400;6.692;2023-10-19T04:47:29;13.60;90.10
78325;DHT22;67584;51.400;6.692;2023-10-19T04:49:54;13.60;89.90
78325;DHT22;67584;51.400;6.692;2023-10-19T04:52:21;13.60;89.90
78325;DHT22;67584;51.400;6.692;2023-10-19T04:54:47;13.50;90.00
78325;DHT22;67584;51.400;6.692;2023-10-19T04:57:12;13.50;90.20
78325;DHT22;67584;51.400;6.692;2023-10-19T04:59:38;13.40;90.40
78325;DHT22;67584;51.400;6.692;2023-10-19T05:02:04;13.40;90.60
78325;DHT22;67584;51.400;6.692;2023-10-19T05:04:31;13.40;90.40
78325;DHT22;67584;51.400;6.692;2023-10-19T05:06:56;13.40;90.40
78325;DHT22;67584;51.400;6.692;2023-10-19T05:09:22;13.30;90.40
78325;DHT22;67584;51.400;6.692;2023-10-19T05:11:48;13.40;90.40
78325;DHT22;67584;51.400;6.692;2023-10-19T05:14:13;13.40;90.40
78325;DHT22;67584;51.400;6.692;2023-10-19T05:16:40;13.40;90.60
78325;DHT22;67584;51.400;6.692;2023-10-19T05:19:05;13.30;90.60
78325;DHT22;67584;51.400;6.692;2023-10-19T05:21:31;13.30;90.60
78325;DHT22;67584;51.400;6.692;2023-10-19T05:23:57;13.30;90.70
78325;DHT22;67584;51.400;6.692;2023-10-19T05:26:26;13.30;90.50
78325;DHT22;67584;51.400;6.692;2023-10-19T05:28:52;13.30;90.50
78325;DHT22;67584;51.400;6.692;2023-10-19T05:31:20;13.40;90.60
78325;DHT22;67584;51.400;6.692;2023-10-19T05:33:45;13.30;90.80
78325;DHT22;67584;51.400;6.692;2023-10-19T05:36:14;13.30;90.70
78325;DHT22;67584;51.400;6.692;2023-10-19T05:38:40;13.20;90.80
78325;DHT22;67584;51.400;6.692;2023-10-19T05:41:06;13.20;90.60
78325;DHT22;67584;51.400;6.692;2023-10-19T05:43:33;13.10;90.80
78325;DHT22;67584;51.400;6.692;2023-10-19T05:46:00;13.10;90.80
78325;DHT22;67584;51.400;6.692;2023-10-19T05:48:26;13.10;91.10
78325;DHT22;67584;51.400;6.692;2023-10-19T05:50:52;13.10;91.40
78325;DHT22;67584;51.400;6.692;2023-10-19T05:53:18;13.10;91.30
78325;DHT22;67584;51.400;6.692;2023-10-19T05:55:46;13.10;91.40
78325;DHT22;67584;51.400;6.692;2023-10-19T05:58:12;13.00;91.20
78325;DHT22;67584;51.400;6.692;2023-10-19T06:00:38;13.10;91.30
78325;DHT22;67584;51.400;6.692;2023-10-19T06:03:04;13.10;91.20
78325;DHT22;67584;51.400;6.692;2023-10-19T06:05:30;13.20;91.20
78325;DHT22;67584;51.400;6.692;2023-10-19T06:07:56;13.10;91.20
78325;DHT22;67584;51.400;6.692;2023-10-19T06:10:26;13.20;91.30
78325;DHT22;67584;51.400;6.692;2023-10-19T06:12:52;13.20;91.20
78325;DHT22;67584;51.400;6.692;2023-10-19T06:15:19;13.20;91.30
78325;DHT22;67584;51.400;6.692;2023-10-19T06:17:57;13.30;91.20
78325;DHT22;67584;51.400;6.692;2023-10-19T06:20:23;13.40;91.00
78325;DHT22;67584;51.400;6.692;2023-10-19T06:23:01;13.40;91.00
78325;DHT22;67584;51.400;6.692;2023-10-19T06:25:30;13.50;90.90
78325;DHT22;67584;51.400;6.692;2023-10-19T06:27:56;13.40;90.80
78325;DHT22;67584;51.400;6.692;2023-10-19T06:30:27;13.50;90.80
78325;DHT22;67584;51.400;6.692;2023-10-19T06:32:55;13.50;90.80
78325;DHT22;67584;51.400;6.692;2023-10-19T06:35:21;13.50;90.70
78325;DHT22;67584;51.400;6.692;2023-10-19T06:37:48;13.50;90.50
78325;DHT22;67584;51.400;6.692;2023-10-19T06:40:15;13.50;90.70
78325;DHT22;67584;51.400;6.692;2023-10-19T06:42:42;13.60;90.60
78325;DHT22;67584;51.400;6.692;2023-10-19T06:45:09;13.60;90.50
78325;DHT22;67584;51.400;6.692;2023-10-19T06:47:35;13.70;90.40
78325;DHT22;67584;51.400;6.692;2023-10-19T06:50:07;13.60;90.40
78325;DHT22;67584;51.400;6.692;2023-10-19T06:52:37;13.70;90.40
78325;DHT22;67584;51.400;6.692;2023-10-19T06:55:07;13.80;90.40
78325;DHT22;67584;51.400;6.692;2023-10-19T06:57:42;13.80;90.30
78325;DHT22;67584;51.400;6.692;2023-10-19T07:00:15;13.80;90.20
78325;DHT22;67584;51.400;6.692;2023-10-19T07:02:55;13.90;90.20
78325;DHT22;67584;51.400;6.692;2023-10-19T07:05:22;14.00;90.00
78325;DHT22;67584;51.400;6.692;2023-10-19T07:07:55;14.00;90.00
78325;DHT22;67584;51.400;6.692;2023-10-19T07:10:23;14.00;89.70
78325;DHT22;67584;51.400;6.692;2023-10-19T07:12:52;14.00;89.70
78325;DHT22;67584;51.400;6.692;2023-10-19T07:15:19;14.10;89.50
78325;DHT22;67584;51.400;6.692;2023-10-19T07:17:46;14.10;89.40
78325;DHT22;67584;51.400;6.692;2023-10-19T07:20:13;14.10;89.30
78325;DHT22;67584;51.400;6.692;2023-10-19T07:23:02;14.20;89.10
78325;DHT22;67584;51.400;6.692;2023-10-19T07:25:51;14.20;89.20
78325;DHT22;67584;51.400;6.692;2023-10-19T07:28:22;14.20;89.10
78325;DHT22;67584;51.400;6.692;2023-10-19T07:30:52;14.20;89.00
78325;DHT22;67584;51.400;6.692;2023-10-19T07:33:18;14.20;89.00
78325;DHT22;67584;51.400;6.692;2023-10-19T07:35:49;14.20;89.00
78325;DHT22;67584;51.400;6.692;2023-10-19T07:38:26;14.30;89.00
78325;DHT22;67584;51.400;6.692;2023-10-19T07:40:53;14.50;88.90
78325;DHT22;67584;51.400;6.692;2023-10-19T07:43:19;14.40;88.60
78325;DHT22;67584;51.400;6.692;2023-10-19T07:45:46;14.50;88.50
78325;DHT22;67584;51.400;6.692;2023-10-19T07:48:13;14.60;88.10
78325;DHT22;67584;51.400;6.692;2023-10-19T07:50:40;14.70;87.90
78325;DHT22;67584;51.400;6.692;2023-10-19T07:53:08;14.70;87.80
78325;DHT22;67584;51.400;6.692;2023-10-19T07:55:35;14.70;87.90
78325;DHT22;67584;51.400;6.692;2023-10-19T07:58:02;14.70;87.90
78325;DHT22;67584;51.400;6.692;2023-10-19T08:00:32;14.80;87.80
78325;DHT22;67584;51.400;6.692;2023-10-19T08:03:02;14.80;87.60
78325;DHT22;67584;51.400;6.692;2023-10-19T08:05:28;14.90;87.60
78325;DHT22;67584;51.400;6.692;2023-10-19T08:07:53;15.00;87.50
78325;DHT22;67584;51.400;6.692;2023-10-19T08:10:20;15.10;87.30
78325;DHT22;67584;51.400;6.692;2023-10-19T08:12:47;15.30;87.10
78325;DHT22;67584;51.400;6.692;2023-10-19T08:15:15;15.50;86.40
78325;DHT22;67584;51.400;6.692;2023-10-19T08:17:43;15.70;86.30
78325;DHT22;67584;51.400;6.692;2023-10-19T08:20:11;15.80;85.70
78325;DHT22;67584;51.400;6.692;2023-10-19T08:22:44;16.00;85.40
78325;DHT22;67584;51.400;6.692;2023-10-19T08:25:12;16.00;84.80
78325;DHT22;67584;51.400;6.692;2023-10-19T08:27:46;16.00;84.70
78325;DHT22;67584;51.400;6.692;2023-10-19T08:30:22;16.00;84.80
78325;DHT22;67584;51.400;6.692;2023-10-19T08:32:48;16.10;84.50
78325;DHT22;67584;51.400;6.692;2023-10-19T08:35:19;16.00;84.70
78325;DHT22;67584;51.400;6.692;2023-10-19T08:37:55;16.00;84.90
78325;DHT22;67584;51.400;6.692;2023-10-19T08:40:25;16.10;84.60
78325;DHT22;67584;51.400;6.692;2023-10-19T08:42:52;16.20;84.50
78325;DHT22;67584;51.400;6.692;2023-10-19T08:45:19;16.30;84.40
78325;DHT22;67584;51.400;6.692;2023-10-19T08:48:01;16.30;84.40
78325;DHT22;67584;51.400;6.692;2023-10-19T08:50:29;16.20;84.50
78325;DHT22;67584;51.400;6.692;2023-10-19T08:52:57;16.30;84.50
78325;DHT22;67584;51.400;6.692;2023-10-19T08:55:23;16.10;84.70
78325;DHT22;67584;51.400;6.692;2023-10-19T08:57:50;16.30;84.80
78325;DHT22;67584;51.400;6.692;2023-10-19T09:00:17;16.60;84.60
78325;DHT22;67584;51.400;6.692;2023-10-19T09:02:45;16.70;84.30
78325;DHT22;67584;51.400;6.692;2023-10-19T09:05:11;17.10;83.90
78325;DHT22;67584;51.400;6.692;2023-10-19T09:07:48;17.50;82.30
78325;DHT22;67584;51.400;6.692;2023-10-19T09:10:25;17.90;81.50
78325;DHT22;67584;51.400;6.692;2023-10-19T09:12:59;18.10;81.30
78325;DHT22;67584;51.400;6.692;2023-10-19T09:15:27;18.40;80.40
78325;DHT22;67584;51.400;6.692;2023-10-19T09:17:53;18.80;79.30
78325;DHT22;67584;51.400;6.692;2023-10-19T09:20:22;18.90;78.60
78325;DHT22;67584;51.400;6.692;2023-10-19T09:22:55;19.10;78.30
78325;DHT22;67584;51.400;6.692;2023-10-19T09:25:24;19.50;77.80
78325;DHT22;67584;51.400;6.692;2023-10-19T09:27:50;20.00;76.90
78325;DHT22;67584;51.400;6.692;2023-10-19T09:30:17;20.50;75.60
78325;DHT22;67584;51.400;6.692;2023-10-19T09:32:48;21.30;73.30
78325;DHT22;67584;51.400;6.692;2023-10-19T09:35:15;21.90;72.70
78325;DHT22;67584;51.400;6.692;2023-10-19T09:37:44;21.90;70.40
78325;DHT22;67584;51.400;6.692;2023-10-19T09:40:11;21.90;68.90
78325;DHT22;67584;51.400;6.692;2023-10-19T09:42:43;22.00;68.80
78325;DHT22;67584;51.400;6.692;2023-10-19T09:45:12;23.30;67.80
78325;DHT22;67584;51.400;6.692;2023-10-19T09:47:49;24.90;62.30
78325;DHT22;67584;51.400;6.692;2023-10-19T09:50:15;25.50;59.40
78325;DHT22;67584;51.400;6.692;2023-10-19T09:52:41;24.50;60.40
78325;DHT22;67584;51.400;6.692;2023-10-19T09:55:27;23.90;57.40
78325;DHT22;67584;51.400;6.692;2023-10-19T09:57:56;24.50;59.50
78325;DHT22;67584;51.400;6.692;2023-10-19T10:00:24;25.10;59.30
78325;DHT22;67584;51.400;6.692;2023-10-19T10:02:51;25.70;56.40
78325;DHT22;67584;51.400;6.692;2023-10-19T10:10:50;27.00;51.40
78325;DHT22;67584;51.400;6.692;2023-10-19T10:15:58;25.80;55.20
78325;DHT22;67584;51.400;6.692;2023-10-19T10:18:24;25.40;54.80
78325;DHT22;67584;51.400;6.692;2023-10-19T10:26:14;28.00;49.90
78325;DHT22;67584;51.400;6.692;2023-10-19T10:28:41;28.80;48.40
78325;DHT22;67584;51.400;6.692;2023-10-19T10:33:46;29.00;47.30
78325;DHT22;67584;51.400;6.692;2023-10-19T10:36:14;28.10;48.30
78325;DHT22;67584;51.400;6.692;2023-10-19T10:38:40;27.00;49.40
78325;DHT22;67584;51.400;6.692;2023-10-19T10:41:06;26.30;51.40
78325;DHT22;67584;51.400;6.692;2023-10-19T10:43:52;26.00;51.00
78325;DHT22;67584;51.400;6.692;2023-10-19T10:46:22;25.60;53.40
78325;DHT22;67584;51.400;6.692;2023-10-19T10:48:48;25.40;53.60
78325;DHT22;67584;51.400;6.692;2023-10-19T10:51:26;24.80;55.00
78325;DHT22;67584;51.400;6.692;2023-10-19T10:53:55;24.00;56.90
78325;DHT22;67584;51.400;6.692;2023-10-19T10:56:22;24.90;55.40
78325;DHT22;67584;51.400;6.692;2023-10-19T10:58:49;26.10;52.20
78325;DHT22;67584;51.400;6.692;2023-10-19T11:01:31;27.00;50.30
78325;DHT22;67584;51.400;6.692;2023-10-19T11:04:06;27.00;48.70
78325;DHT22;67584;51.400;6.692;2023-10-19T11:06:32;26.30;50.90
78325;DHT22;67584;51.400;6.692;2023-10-19T11:08:58;26.00;51.70
78325;DHT22;67584;51.400;6.692;2023-10-19T11:11:37;26.80;49.40
78325;DHT22;67584;51.400;6.692;2023-10-19T11:14:11;28.10;47.40
78325;DHT22;67584;51.400;6.692;2023-10-19T11:16:37;28.60;46.80
78325;DHT22;67584;51.400;6.692;2023-10-19T11:19:05;29.60;44.20
78325;DHT22;67584;51.400;6.692;2023-10-19T11:21:31;29.90;43.60
78325;DHT22;67584;51.400;6.692;2023-10-19T11:23:56;29.90;43.70
78325;DHT22;67584;51.400;6.692;2023-10-19T11:26:23;29.80;43.00
78325;DHT22;67584;51.400;6.692;2023-10-19T11:29:02;29.00;43.60
78325;DHT22;67584;51.400;6.692;2023-10-19T11:31:31;27.90;46.30
78325;DHT22;67584;51.400;6.692;2023-10-19T11:34:03;27.30;47.60
78325;DHT22;67584;51.400;6.692;2023-10-19T11:36:29;26.20;49.40
78325;DHT22;67584;51.400;6.692;2023-10-19T11:38:55;25.30;51.30
78325;DHT22;67584;51.400;6.692;2023-10-19T11:41:21;24.40;53.00
78325;DHT22;67584;51.400;6.692;2023-10-19T11:43:48;23.90;54.00
78325;DHT22;67584;51.400;6.692;2023-10-19T11:46:15;23.40;55.10
78325;DHT22;67584;51.400;6.692;2023-10-19T11:48:43;23.20;56.00
78325;DHT22;67584;51.400;6.692;2023-10-19T11:51:09;23.10;56.80
78325;DHT22;67584;51.400;6.692;2023-10-19T11:53:37;23.00;57.10
78325;DHT22;67584;51.400;6.692;2023-10-19T11:56:06;23.40;56.80
78325;DHT22;67584;51.400;6.692;2023-10-19T11:58:33;23.70;56.30
78325;DHT22;67584;51.400;6.692;2023-10-19T12:01:00;24.20;55.00
78325;DHT22;67584;51.400;6.692;2023-10-19T12:03:26;24.50;54.50
78325;DHT22;67584;51.400;6.692;2023-10-19T12:05:53;24.70;54.10
78325;DHT22;67584;51.400;6.692;2023-10-19T12:08:19;24.90;54.10
78325;DHT22;67584;51.400;6.692;2023-10-19T12:10:45;24.90;53.60
78325;DHT22;67584;51.400;6.692;2023-10-19T12:13:10;24.90;53.00
78325;DHT22;67584;51.400;6.692;2023-10-19T12:15:37;24.40;54.70
78325;DHT22;67584;51.400;6.692;2023-10-19T12:18:03;24.30;55.00
78325;DHT22;67584;51.400;6.692;2023-10-19T12:20:29;24.10;55.60
78325;DHT22;67584;51.400;6.692;2023-10-19T12:22:58;23.60;56.50
78325;DHT22;67584;51.400;6.692;2023-10-19T12:25:25;23.00;57.70
78325;DHT22;67584;51.400;6.692;2023-10-19T12:28:00;22.80;58.80
78325;DHT22;67584;51.400;6.692;2023-10-19T12:30:26;22.50;59.50
78325;DHT22;67584;51.400;6.692;2023-10-19T12:33:00;22.20;60.30
78325;DHT22;67584;51.400;6.692;2023-10-19T12:35:26;22.00;60.80
78325;DHT22;67584;51.400;6.692;2023-10-19T12:38:18;21.80;61.90
78325;DHT22;67584;51.400;6.692;2023-10-19T12:40:47;21.60;62.80
78325;DHT22;67584;51.400;6.692;2023-10-19T12:43:14;21.50;63.30
78325;DHT22;67584;51.400;6.692;2023-10-19T12:45:40;21.30;63.80
78325;DHT22;67584;51.400;6.692;2023-10-19T12:48:07;21.20;64.10
78325;DHT22;67584;51.400;6.692;2023-10-19T12:50:37;21.20;64.60
78325;DHT22;67584;51.400;6.692;2023-10-19T12:53:03;21.10;64.70
78325;DHT22;67584;51.400;6.692;2023-10-19T12:55:29;21.10;65.10
78325;DHT22;67584;51.400;6.692;2023-10-19T12:57:57;20.80;65.80
78325;DHT22;67584;51.400;6.692;2023-10-19T13:00:23;20.60;66.60
78325;DHT22;67584;51.400;6.692;2023-10-19T13:02:50;20.40;66.90
78325;DHT22;67584;51.400;6.692;2023-10-19T13:05:16;20.30;68.30
78325;DHT22;67584;51.400;6.692;2023-10-19T13:07:44;20.20;69.00
78325;DHT22;67584;51.400;6.692;2023-10-19T13:10:10;20.00;69.50
78325;DHT22;67584;51.400;6.692;2023-10-19T13:12:37;19.90;70.10
78325;DHT22;67584;51.400;6.692;2023-10-19T13:15:04;19.80;70.80
78325;DHT22;67584;51.400;6.692;2023-10-19T13:17:40;19.90;71.10
78325;DHT22;67584;51.400;6.692;2023-10-19T13:20:08;19.80;72.10
78325;DHT22;67584;51.400;6.692;2023-10-19T13:22:44;19.70;72.40
78325;DHT22;67584;51.400;6.692;2023-10-19T13:25:11;19.60;72.70
78325;DHT22;67584;51.400;6.692;2023-10-19T13:27:45;19.60;72.90
78325;DHT22;67584;51.400;6.692;2023-10-19T13:30:14;19.50;73.60
78325;DHT22;67584;51.400;6.692;2023-10-19T13:32:40;19.40;73.90
78325;DHT22;67584;51.400;6.692;2023-10-19T13:35:09;19.30;74.90
78325;DHT22;67584;51.400;6.692;2023-10-19T13:37:34;19.10;75.50
78325;DHT22;67584;51.400;6.692;2023-10-19T13:40:02;18.90;76.60
78325;DHT22;67584;51.400;6.692;2023-10-19T13:42:30;18.80;76.90
78325;DHT22;67584;51.400;6.692;2023-10-19T13:44:55;18.70;77.60
78325;DHT22;67584;51.400;6.692;2023-10-19T13:47:22;18.50;78.00
78325;DHT22;67584;51.400;6.692;2023-10-19T13:49:47;18.50;78.60
78325;DHT22;67584;51.400;6.692;2023-10-19T13:52:13;18.40;78.50
78325;DHT22;67584;51.400;6.692;2023-10-19T13:54:41;18.40;79.00
78325;DHT22;67584;51.400;6.692;2023-10-19T13:57:06;18.50;78.90
78325;DHT22;67584;51.400;6.692;2023-10-19T13:59:32;18.40;78.80
78325;DHT22;67584;51.400;6.692;2023-10-19T14:02:00;18.40;81.10
78325;DHT22;67584;51.400;6.692;2023-10-19T14:04:26;18.40;79.20
78325;DHT22;67584;51.400;6.692;2023-10-19T14:06:51;18.50;79.00
78325;DHT22;67584;51.400;6.692;2023-10-19T14:09:19;18.50;79.10
78325;DHT22;67584;51.400;6.692;2023-10-19T14:11:45;18.50;79.30
78325;DHT22;67584;51.400;6.692;2023-10-19T14:14:11;18.50;79.50
78325;DHT22;67584;51.400;6.692;2023-10-19T14:16:37;18.60;79.40
78325;DHT22;67584;51.400;6.692;2023-10-19T14:19:04;18.60;78.50
78325;DHT22;67584;51.400;6.692;2023-10-19T14:21:30;18.60;79.00
78325;DHT22;67584;51.400;6.692;2023-10-19T14:23:57;18.70;78.90
78325;DHT22;67584;51.400;6.692;2023-10-19T14:26:23;18.70;78.50
78325;DHT22;67584;51.400;6.692;2023-10-19T14:28:49;18.60;79.20
78325;DHT22;67584;51.400;6.692;2023-10-19T14:31:15;18.60;79.50
78325;DHT22;67584;51.400;6.692;2023-10-19T14:33:42;18.50;79.50
78325;DHT22;67584;51.400;6.692;2023-10-19T14:36:09;18.50;80.10
78325;DHT22;67584;51.400;6.692;2023-10-19T14:38:34;18.40;80.10
78325;DHT22;67584;51.400;6.692;2023-10-19T14:41:01;18.30;80.30
78325;DHT22;67584;51.400;6.692;2023-10-19T14:43:27;18.30;80.50
78325;DHT22;67584;51.400;6.692;2023-10-19T14:45:55;18.20;80.50
78325;DHT22;67584;51.400;6.692;2023-10-19T14:48:22;18.10;81.20
78325;DHT22;67584;51.400;6.692;2023-10-19T14:50:49;18.10;81.00
78325;DHT22;67584;51.400;6.692;2023-10-19T14:53:17;18.20;81.00
78325;DHT22;67584;51.400;6.692;2023-10-19T14:55:44;18.20;80.70
78325;DHT22;67584;51.400;6.692;2023-10-19T14:58:11;18.20;80.80
78325;DHT22;67584;51.400;6.692;2023-10-19T15:00:37;18.10;81.50
78325;DHT22;67584;51.400;6.692;2023-10-19T15:03:07;18.10;81.70
78325;DHT22;67584;51.400;6.692;2023-10-19T15:05:34;18.10;81.80
78325;DHT22;67584;51.400;6.692;2023-10-19T15:08:04;18.00;81.80
78325;DHT22;67584;51.400;6.692;2023-10-19T15:10:33;18.00;82.20
78325;DHT22;67584;51.400;6.692;2023-10-19T15:13:00;17.80;82.40
78325;DHT22;67584;51.400;6.692;2023-10-19T15:15:26;17.90;82.40
78325;DHT22;67584;51.400;6.692;2023-10-19T15:17:52;17.90;82.40
78325;DHT22;67584;51.400;6.692;2023-10-19T15:20:19;17.90;82.50
78325;DHT22;67584;51.400;6.692;2023-10-19T15:22:46;18.00;82.40
78325;DHT22;67584;51.400;6.692;2023-10-19T15:25:13;18.00;82.00
78325;DHT22;67584;51.400;6.692;2023-10-19T15:27:41;18.10;82.10
78325;DHT22;67584;51.400;6.692;2023-10-19T15:30:09;17.90;82.50
78325;DHT22;67584;51.400;6.692;2023-10-19T15:32:37;18.00;82.50
78325;DHT22;67584;51.400;6.692;2023-10-19T15:35:03;18.10;82.20
78325;DHT22;67584;51.400;6.692;2023-10-19T15:37:29;18.10;81.70
78325;DHT22;67584;51.400;6.692;2023-10-19T15:39:55;18.20;82.00
78325;DHT22;67584;51.400;6.692;2023-10-19T15:42:20;18.30;81.70
78325;DHT22;67584;51.400;6.692;2023-10-19T15:44:50;18.20;81.80
78325;DHT22;67584;51.400;6.692;2023-10-19T15:47:16;18.30;81.40
78325;DHT22;67584;51.400;6.692;2023-10-19T15:49:49;18.40;80.90
78325;DHT22;67584;51.400;6.692;2023-10-19T15:52:19;18.70;80.60
78325;DHT22;67584;51.400;6.692;2023-10-19T15:54:49;19.20;79.60
78325;DHT22;67584;51.400;6.692;2023-10-19T15:57:15;20.40;77.80